GEC8401 WMKP-OPLA
Flight info
| Callsign | GEC8401 |
|---|---|
| Flight time | 4h 48m |
| Altitude | 32000 |
| Route | GOGOM1B GOGOM Y351 DUBAX R325 PUT L759 MABUR/N0495F340 L759 KKJ J1 MEMID L760 DPN A589 ASARI A466 SULOM |
| Aircraft | MD11/H-SDE1E2E3FGHIJ2J3J4J5M1RWXY/LB1D1 |
Departure
| Time | 2026-04-22 16:19 |
|---|---|
| Airport | Penang International Airport (WMKP) |
Arrival
| Time | 2026-04-22 21:08 |
|---|---|
| Airport | Allama Iqbal International Airport (OPLA) |
| Time | Latitude | Longitude | Altitude | Speed | Heading |
|---|---|---|---|---|---|
| 2026-04-22 15:53 | 5.28978 | 100.26444 | 30 ft | 0 kts | 312° |
| 2026-04-22 16:09 | 5.28976 | 100.26447 | 29 ft | 3 kts | 312° |
| 2026-04-22 16:10 | 5.28957 | 100.26466 | 28 ft | 4 kts | 315° |
| 2026-04-22 16:10 | 5.28942 | 100.26483 | 27 ft | 3 kts | 279° |
| 2026-04-22 16:10 | 5.28940 | 100.26503 | 27 ft | 4 kts | 252° |
| 2026-04-22 16:10 | 5.28951 | 100.26520 | 29 ft | 4 kts | 214° |
| 2026-04-22 16:11 | 5.28963 | 100.26529 | 27 ft | 0 kts | 221° |
| 2026-04-22 16:16 | 5.28961 | 100.26527 | 30 ft | 1 kts | 221° |
| 2026-04-22 16:16 | 5.28946 | 100.26513 | 30 ft | 6 kts | 221° |
| 2026-04-22 16:16 | 5.28899 | 100.26485 | 29 ft | 7 kts | 195° |
| 2026-04-22 16:16 | 5.28855 | 100.26490 | 30 ft | 7 kts | 156° |
| 2026-04-22 16:17 | 5.28815 | 100.26529 | 30 ft | 9 kts | 128° |
| 2026-04-22 16:17 | 5.28758 | 100.26571 | 30 ft | 11 kts | 159° |
| 2026-04-22 16:17 | 5.28679 | 100.26606 | 31 ft | 14 kts | 141° |
| 2026-04-22 16:17 | 5.28635 | 100.26692 | 30 ft | 14 kts | 86° |
| 2026-04-22 16:18 | 5.28659 | 100.26727 | 30 ft | 0 kts | 41° |
| 2026-04-22 16:18 | 5.28674 | 100.26740 | 30 ft | 9 kts | 41° |
| 2026-04-22 16:18 | 5.28850 | 100.26897 | 32 ft | 70 kts | 42° |
| 2026-04-22 16:19 | 5.29399 | 100.27398 | 30 ft | 141 kts | 42° |
| 2026-04-22 16:19 | 5.30265 | 100.28180 | 41 ft | 189 kts | 43° |
| 2026-04-22 16:19 | 5.31278 | 100.29088 | 450 ft | 198 kts | 41° |
| 2026-04-22 16:19 | 5.32341 | 100.29979 | 1037 ft | 200 kts | 39° |
| 2026-04-22 16:20 | 5.33424 | 100.30861 | 1693 ft | 201 kts | 38° |
| 2026-04-22 16:20 | 5.34513 | 100.31731 | 2308 ft | 200 kts | 38° |
| 2026-04-22 16:20 | 5.35607 | 100.32581 | 2889 ft | 199 kts | 31° |
| 2026-04-22 16:20 | 5.36903 | 100.33076 | 3366 ft | 201 kts | 7° |
| 2026-04-22 16:21 | 5.38273 | 100.33031 | 3852 ft | 201 kts | 347° |
| 2026-04-22 16:21 | 5.39598 | 100.32586 | 4380 ft | 200 kts | 339° |
| 2026-04-22 16:21 | 5.40875 | 100.32035 | 4873 ft | 200 kts | 336° |
| 2026-04-22 16:21 | 5.42137 | 100.31432 | 5315 ft | 203 kts | 335° |
| 2026-04-22 16:22 | 5.44801 | 100.30202 | 6055 ft | 215 kts | 342° |
| 2026-04-22 16:22 | 5.46234 | 100.29747 | 6475 ft | 218 kts | 345° |
| 2026-04-22 16:22 | 5.47711 | 100.29318 | 6802 ft | 225 kts | 346° |
| 2026-04-22 16:23 | 5.50882 | 100.28450 | 7417 ft | 245 kts | 347° |
| 2026-04-22 16:23 | 5.52558 | 100.28090 | 7868 ft | 247 kts | 351° |
| 2026-04-22 16:23 | 5.54260 | 100.27809 | 8314 ft | 249 kts | 352° |
| 2026-04-22 16:24 | 5.55987 | 100.27543 | 8699 ft | 253 kts | 352° |
| 2026-04-22 16:24 | 5.59502 | 100.27010 | 9452 ft | 259 kts | 351° |
| 2026-04-22 16:24 | 5.61312 | 100.26711 | 9687 ft | 268 kts | 351° |
| 2026-04-22 16:25 | 5.63186 | 100.26410 | 9871 ft | 277 kts | 352° |
| 2026-04-22 16:25 | 5.67150 | 100.25752 | 10127 ft | 310 kts | 351° |
| 2026-04-22 16:25 | 5.69352 | 100.25372 | 10262 ft | 333 kts | 351° |
| 2026-04-22 16:26 | 5.71711 | 100.24964 | 10391 ft | 356 kts | 351° |
| 2026-04-22 16:26 | 5.74202 | 100.24532 | 10787 ft | 366 kts | 351° |
| 2026-04-22 16:26 | 5.76733 | 100.24093 | 11433 ft | 371 kts | 351° |
| 2026-04-22 16:26 | 5.79281 | 100.23651 | 12088 ft | 374 kts | 350° |
| 2026-04-22 16:27 | 5.81855 | 100.23205 | 12746 ft | 377 kts | 350° |
| 2026-04-22 16:27 | 5.84422 | 100.22760 | 13357 ft | 381 kts | 350° |
| 2026-04-22 16:27 | 5.87048 | 100.22304 | 13906 ft | 385 kts | 350° |
| 2026-04-22 16:27 | 5.89698 | 100.21845 | 14439 ft | 388 kts | 350° |
| 2026-04-22 16:28 | 5.92374 | 100.21382 | 14951 ft | 392 kts | 350° |
| 2026-04-22 16:28 | 5.95073 | 100.20914 | 15443 ft | 395 kts | 351° |
| 2026-04-22 16:28 | 5.97797 | 100.20442 | 15930 ft | 399 kts | 351° |
| 2026-04-22 16:28 | 6.00538 | 100.19967 | 16431 ft | 402 kts | 351° |
| 2026-04-22 16:29 | 6.03311 | 100.19487 | 16889 ft | 406 kts | 351° |
| 2026-04-22 16:29 | 6.06067 | 100.19010 | 17344 ft | 409 kts | 351° |
| 2026-04-22 16:29 | 6.08882 | 100.18522 | 17802 ft | 412 kts | 351° |
| 2026-04-22 16:29 | 6.11710 | 100.18032 | 18235 ft | 415 kts | 351° |
| 2026-04-22 16:30 | 6.13642 | 100.17697 | 18491 ft | 417 kts | 351° |
| 2026-04-22 16:30 | 6.17447 | 100.17037 | 19019 ft | 420 kts | 351° |
| 2026-04-22 16:30 | 6.20339 | 100.16536 | 19400 ft | 423 kts | 351° |
| 2026-04-22 16:30 | 6.23250 | 100.16031 | 19769 ft | 425 kts | 351° |
| 2026-04-22 16:31 | 6.26172 | 100.15524 | 20131 ft | 428 kts | 351° |
| 2026-04-22 16:31 | 6.29079 | 100.15020 | 20497 ft | 430 kts | 351° |
| 2026-04-22 16:31 | 6.32033 | 100.14507 | 20861 ft | 433 kts | 351° |
| 2026-04-22 16:31 | 6.35009 | 100.13991 | 21238 ft | 435 kts | 351° |
| 2026-04-22 16:32 | 6.38002 | 100.13466 | 21613 ft | 438 kts | 351° |
| 2026-04-22 16:32 | 6.40981 | 100.12769 | 21974 ft | 442 kts | 344° |
| 2026-04-22 16:32 | 6.43830 | 100.11597 | 22346 ft | 446 kts | 332° |
| 2026-04-22 16:32 | 6.46393 | 100.09818 | 22710 ft | 450 kts | 320° |
| 2026-04-22 16:33 | 6.48633 | 100.07602 | 23071 ft | 454 kts | 313° |
| 2026-04-22 16:33 | 6.50724 | 100.05202 | 23450 ft | 458 kts | 311° |
| 2026-04-22 16:33 | 6.52780 | 100.02748 | 23773 ft | 460 kts | 311° |
| 2026-04-22 16:33 | 6.54829 | 100.00327 | 24114 ft | 463 kts | 312° |
| 2026-04-22 16:34 | 6.56946 | 99.97877 | 24451 ft | 465 kts | 313° |
| 2026-04-22 16:34 | 6.59096 | 99.95438 | 24789 ft | 467 kts | 313° |
| 2026-04-22 16:34 | 6.61274 | 99.92997 | 25146 ft | 470 kts | 313° |
| 2026-04-22 16:34 | 6.63470 | 99.90552 | 25493 ft | 473 kts | 314° |
| 2026-04-22 16:35 | 6.65685 | 99.88093 | 25834 ft | 475 kts | 314° |
| 2026-04-22 16:35 | 6.67912 | 99.85621 | 26175 ft | 478 kts | 314° |
| 2026-04-22 16:35 | 6.70146 | 99.83140 | 26519 ft | 480 kts | 314° |
| 2026-04-22 16:35 | 6.72365 | 99.80674 | 26867 ft | 482 kts | 314° |
| 2026-04-22 16:36 | 6.74618 | 99.78168 | 27186 ft | 485 kts | 314° |
| 2026-04-22 16:36 | 6.76889 | 99.75641 | 27495 ft | 488 kts | 314° |
| 2026-04-22 16:36 | 6.79170 | 99.73103 | 27814 ft | 490 kts | 314° |
| 2026-04-22 16:36 | 6.81462 | 99.70551 | 28132 ft | 493 kts | 314° |
| 2026-04-22 16:37 | 6.83766 | 99.67987 | 28461 ft | 495 kts | 314° |
| 2026-04-22 16:37 | 6.86082 | 99.65408 | 28765 ft | 498 kts | 314° |
| 2026-04-22 16:37 | 6.88408 | 99.62817 | 29067 ft | 500 kts | 314° |
| 2026-04-22 16:37 | 6.90745 | 99.60215 | 29376 ft | 503 kts | 314° |
| 2026-04-22 16:38 | 6.93065 | 99.57631 | 29671 ft | 505 kts | 314° |
| 2026-04-22 16:38 | 6.95423 | 99.55004 | 29974 ft | 506 kts | 314° |
| 2026-04-22 16:38 | 6.97775 | 99.52381 | 30294 ft | 505 kts | 314° |
| 2026-04-22 16:38 | 7.00137 | 99.49762 | 30613 ft | 505 kts | 315° |
| 2026-04-22 16:39 | 7.02525 | 99.47170 | 30929 ft | 504 kts | 315° |
| 2026-04-22 16:39 | 7.04926 | 99.44601 | 31234 ft | 503 kts | 315° |
| 2026-04-22 16:39 | 7.07332 | 99.42043 | 31538 ft | 503 kts | 315° |
| 2026-04-22 16:39 | 7.09740 | 99.39486 | 31775 ft | 504 kts | 315° |
| 2026-04-22 16:40 | 7.14538 | 99.34386 | 31856 ft | 507 kts | 315° |
| 2026-04-22 16:41 | 7.21804 | 99.26640 | 31865 ft | 507 kts | 315° |
| 2026-04-22 16:41 | 7.26644 | 99.21474 | 31856 ft | 507 kts | 315° |
| 2026-04-22 16:42 | 7.31485 | 99.16306 | 31868 ft | 507 kts | 315° |
| 2026-04-22 16:42 | 7.36294 | 99.11171 | 31866 ft | 507 kts | 315° |
| 2026-04-22 16:43 | 7.41138 | 99.05997 | 31862 ft | 508 kts | 315° |
| 2026-04-22 16:43 | 7.45988 | 99.00815 | 31854 ft | 508 kts | 315° |
| 2026-04-22 16:44 | 7.50842 | 98.95627 | 31882 ft | 508 kts | 315° |
| 2026-04-22 16:44 | 7.55685 | 98.90448 | 31855 ft | 508 kts | 315° |
| 2026-04-22 16:45 | 7.60492 | 98.85302 | 31857 ft | 508 kts | 315° |
| 2026-04-22 16:45 | 7.65330 | 98.80122 | 31863 ft | 507 kts | 315° |
| 2026-04-22 16:46 | 7.70169 | 98.74941 | 31857 ft | 507 kts | 315° |
| 2026-04-22 16:46 | 7.74999 | 98.69745 | 31855 ft | 508 kts | 315° |
| 2026-04-22 16:47 | 7.79793 | 98.64569 | 31855 ft | 509 kts | 315° |
| 2026-04-22 16:47 | 7.84623 | 98.59352 | 31846 ft | 509 kts | 315° |
| 2026-04-22 16:48 | 7.89453 | 98.54136 | 31850 ft | 509 kts | 315° |
| 2026-04-22 16:48 | 7.94284 | 98.48919 | 31847 ft | 509 kts | 315° |
| 2026-04-22 16:49 | 7.99082 | 98.43736 | 31850 ft | 509 kts | 315° |
| 2026-04-22 16:49 | 8.03908 | 98.38520 | 31855 ft | 509 kts | 315° |
| 2026-04-22 16:50 | 8.08777 | 98.33339 | 31855 ft | 508 kts | 317° |
| 2026-04-22 16:50 | 8.13910 | 98.28449 | 31858 ft | 507 kts | 319° |
| 2026-04-22 16:51 | 8.19102 | 98.23694 | 31858 ft | 507 kts | 320° |
| 2026-04-22 16:51 | 8.24314 | 98.18897 | 31856 ft | 507 kts | 319° |
| 2026-04-22 16:52 | 8.29513 | 98.14076 | 31856 ft | 507 kts | 319° |
| 2026-04-22 16:52 | 8.34709 | 98.09247 | 31856 ft | 507 kts | 319° |
| 2026-04-22 16:53 | 8.39866 | 98.04452 | 31865 ft | 507 kts | 319° |
| 2026-04-22 16:53 | 8.45059 | 97.99624 | 31867 ft | 507 kts | 319° |
| 2026-04-22 16:54 | 8.50256 | 97.94795 | 31863 ft | 508 kts | 319° |
| 2026-04-22 16:54 | 8.55465 | 97.89970 | 31863 ft | 508 kts | 319° |
| 2026-04-22 16:55 | 8.60679 | 97.85145 | 31866 ft | 508 kts | 319° |
| 2026-04-22 16:55 | 8.65853 | 97.80353 | 31862 ft | 508 kts | 319° |
| 2026-04-22 16:56 | 8.71056 | 97.75533 | 31862 ft | 508 kts | 319° |
| 2026-04-22 16:56 | 8.76264 | 97.70705 | 31865 ft | 508 kts | 319° |
| 2026-04-22 16:57 | 8.81466 | 97.65881 | 31862 ft | 508 kts | 319° |
| 2026-04-22 16:57 | 8.86665 | 97.61047 | 31865 ft | 508 kts | 319° |
| 2026-04-22 16:58 | 8.90970 | 97.57012 | 31858 ft | 507 kts | 318° |
| 2026-04-22 16:58 | 8.96979 | 97.51368 | 31864 ft | 508 kts | 318° |
| 2026-04-22 16:59 | 9.02158 | 97.46504 | 31858 ft | 508 kts | 318° |
| 2026-04-22 16:59 | 9.07329 | 97.41648 | 31872 ft | 507 kts | 318° |
| 2026-04-22 17:00 | 9.12465 | 97.36823 | 31858 ft | 507 kts | 318° |
| 2026-04-22 17:00 | 9.20221 | 97.29534 | 31858 ft | 507 kts | 318° |
| 2026-04-22 17:01 | 9.25389 | 97.24674 | 31859 ft | 507 kts | 318° |
| 2026-04-22 17:01 | 9.30559 | 97.19810 | 31858 ft | 507 kts | 318° |
| 2026-04-22 17:02 | 9.35693 | 97.14978 | 31850 ft | 507 kts | 318° |
| 2026-04-22 17:02 | 9.40857 | 97.10117 | 31853 ft | 506 kts | 318° |
| 2026-04-22 17:03 | 9.46008 | 97.05264 | 31853 ft | 506 kts | 318° |
| 2026-04-22 17:03 | 9.51158 | 97.00404 | 31869 ft | 505 kts | 318° |
| 2026-04-22 17:04 | 9.56263 | 96.95588 | 31852 ft | 505 kts | 318° |
| 2026-04-22 17:04 | 9.61411 | 96.90732 | 31854 ft | 505 kts | 318° |
| 2026-04-22 17:05 | 9.66551 | 96.85882 | 31854 ft | 505 kts | 318° |
| 2026-04-22 17:05 | 9.71697 | 96.81025 | 31865 ft | 506 kts | 318° |
| 2026-04-22 17:06 | 9.76848 | 96.76160 | 31865 ft | 506 kts | 317° |
| 2026-04-22 17:06 | 9.81960 | 96.71330 | 31852 ft | 505 kts | 317° |
| 2026-04-22 17:07 | 9.87101 | 96.66470 | 31853 ft | 505 kts | 317° |
| 2026-04-22 17:07 | 9.92242 | 96.61608 | 31865 ft | 505 kts | 317° |
| 2026-04-22 17:08 | 9.97379 | 96.56749 | 31852 ft | 505 kts | 317° |
| 2026-04-22 17:08 | 10.02516 | 96.51886 | 31848 ft | 505 kts | 317° |
| 2026-04-22 17:09 | 10.07617 | 96.47054 | 31867 ft | 505 kts | 317° |
| 2026-04-22 17:09 | 10.12514 | 96.41947 | 31867 ft | 506 kts | 312° |
| 2026-04-22 17:10 | 10.17112 | 96.36542 | 31851 ft | 505 kts | 310° |
| 2026-04-22 17:10 | 10.21666 | 96.31123 | 31866 ft | 505 kts | 310° |
| 2026-04-22 17:11 | 10.26222 | 96.25762 | 31865 ft | 505 kts | 311° |
| 2026-04-22 17:11 | 10.30823 | 96.20378 | 31849 ft | 505 kts | 311° |
| 2026-04-22 17:12 | 10.35426 | 96.14993 | 31863 ft | 505 kts | 311° |
| 2026-04-22 17:12 | 10.40027 | 96.09605 | 31866 ft | 505 kts | 311° |
| 2026-04-22 17:13 | 10.44598 | 96.04248 | 31849 ft | 505 kts | 311° |
| 2026-04-22 17:13 | 10.49200 | 95.98851 | 31847 ft | 505 kts | 311° |
| 2026-04-22 17:14 | 10.53804 | 95.93450 | 31861 ft | 505 kts | 310° |
| 2026-04-22 17:14 | 10.58401 | 95.88054 | 31863 ft | 505 kts | 310° |
| 2026-04-22 17:15 | 10.63001 | 95.82652 | 31845 ft | 505 kts | 310° |
| 2026-04-22 17:15 | 10.67566 | 95.77281 | 31861 ft | 505 kts | 310° |
| 2026-04-22 17:16 | 10.72160 | 95.71875 | 31863 ft | 505 kts | 310° |
| 2026-04-22 17:16 | 10.76762 | 95.66461 | 31860 ft | 506 kts | 310° |
| 2026-04-22 17:17 | 10.81364 | 95.61046 | 31843 ft | 506 kts | 310° |
| 2026-04-22 17:17 | 10.85933 | 95.55667 | 31862 ft | 506 kts | 310° |
| 2026-04-22 17:18 | 10.90538 | 95.50244 | 31861 ft | 506 kts | 310° |
| 2026-04-22 17:18 | 10.95132 | 95.44829 | 31858 ft | 505 kts | 310° |
| 2026-04-22 17:19 | 11.04282 | 95.34037 | 31861 ft | 505 kts | 310° |
| 2026-04-22 17:20 | 11.13468 | 95.23191 | 31857 ft | 506 kts | 310° |
| 2026-04-22 17:21 | 11.20353 | 95.15051 | 31856 ft | 506 kts | 310° |
| 2026-04-22 17:22 | 11.27205 | 95.06936 | 31848 ft | 506 kts | 310° |
| 2026-04-22 17:23 | 11.34076 | 94.98801 | 31857 ft | 505 kts | 310° |
| 2026-04-22 17:23 | 11.40943 | 94.90667 | 31857 ft | 505 kts | 310° |
| 2026-04-22 17:24 | 11.45490 | 94.85278 | 31855 ft | 505 kts | 310° |
| 2026-04-22 17:24 | 11.50068 | 94.79847 | 31855 ft | 505 kts | 310° |
| 2026-04-22 17:25 | 11.54643 | 94.74418 | 31857 ft | 505 kts | 310° |
| 2026-04-22 17:25 | 11.59216 | 94.68989 | 31856 ft | 505 kts | 310° |
| 2026-04-22 17:26 | 11.63761 | 94.63590 | 31856 ft | 505 kts | 310° |
| 2026-04-22 17:26 | 11.68330 | 94.58158 | 31856 ft | 505 kts | 310° |
| 2026-04-22 17:27 | 11.72898 | 94.52726 | 31856 ft | 504 kts | 310° |
| 2026-04-22 17:27 | 11.77630 | 94.47456 | 31857 ft | 504 kts | 314° |
| 2026-04-22 17:28 | 11.82646 | 94.42454 | 31857 ft | 504 kts | 315° |
| 2026-04-22 17:28 | 11.87664 | 94.37525 | 31856 ft | 504 kts | 315° |
| 2026-04-22 17:29 | 11.92692 | 94.32537 | 31855 ft | 504 kts | 315° |
| 2026-04-22 17:29 | 11.97702 | 94.27538 | 31856 ft | 504 kts | 315° |
| 2026-04-22 17:30 | 12.02712 | 94.22531 | 31858 ft | 503 kts | 315° |
| 2026-04-22 17:30 | 12.07679 | 94.17566 | 31857 ft | 502 kts | 315° |
| 2026-04-22 17:31 | 12.12666 | 94.12580 | 31857 ft | 501 kts | 315° |
| 2026-04-22 17:31 | 12.17651 | 94.07593 | 31857 ft | 501 kts | 315° |
| 2026-04-22 17:32 | 12.22640 | 94.02608 | 31856 ft | 501 kts | 315° |
| 2026-04-22 17:32 | 12.27659 | 93.97652 | 31856 ft | 501 kts | 315° |
| 2026-04-22 17:33 | 12.32653 | 93.92744 | 31857 ft | 501 kts | 315° |
| 2026-04-22 17:33 | 12.37682 | 93.87800 | 31855 ft | 501 kts | 315° |
| 2026-04-22 17:34 | 12.42696 | 93.82863 | 31857 ft | 499 kts | 315° |
| 2026-04-22 17:34 | 12.47697 | 93.77936 | 31856 ft | 499 kts | 315° |
| 2026-04-22 17:35 | 12.52659 | 93.73044 | 31856 ft | 498 kts | 315° |
| 2026-04-22 17:35 | 12.57653 | 93.68118 | 31857 ft | 498 kts | 315° |
| 2026-04-22 17:36 | 12.62645 | 93.63191 | 31856 ft | 498 kts | 315° |
| 2026-04-22 17:36 | 12.67637 | 93.58261 | 31857 ft | 498 kts | 315° |
| 2026-04-22 17:37 | 12.72592 | 93.53365 | 31856 ft | 498 kts | 315° |
| 2026-04-22 17:37 | 12.77580 | 93.48434 | 31856 ft | 497 kts | 315° |
| 2026-04-22 17:38 | 12.82550 | 93.43516 | 31856 ft | 497 kts | 315° |
| 2026-04-22 17:38 | 12.87515 | 93.38592 | 31857 ft | 497 kts | 315° |
| 2026-04-22 17:39 | 12.92484 | 93.33666 | 31859 ft | 497 kts | 315° |
| 2026-04-22 17:40 | 12.99898 | 93.26317 | 31857 ft | 497 kts | 315° |
| 2026-04-22 17:40 | 13.04866 | 93.21390 | 31857 ft | 497 kts | 315° |
| 2026-04-22 17:41 | 13.09833 | 93.16461 | 31860 ft | 497 kts | 315° |
| 2026-04-22 17:41 | 13.14788 | 93.11541 | 31859 ft | 495 kts | 315° |
| 2026-04-22 17:42 | 13.19697 | 93.06664 | 31860 ft | 495 kts | 315° |
| 2026-04-22 17:42 | 13.23839 | 93.02546 | 31860 ft | 495 kts | 315° |
| 2026-04-22 17:43 | 13.29580 | 92.96834 | 31860 ft | 495 kts | 315° |
| 2026-04-22 17:43 | 13.34518 | 92.91919 | 31856 ft | 495 kts | 315° |
| 2026-04-22 17:44 | 13.39425 | 92.87032 | 31855 ft | 494 kts | 315° |
| 2026-04-22 17:44 | 13.44356 | 92.82113 | 31856 ft | 494 kts | 315° |
| 2026-04-22 17:45 | 13.49287 | 92.77187 | 31860 ft | 494 kts | 315° |
| 2026-04-22 17:45 | 13.54211 | 92.72271 | 31857 ft | 493 kts | 315° |
| 2026-04-22 17:46 | 13.59133 | 92.67357 | 31857 ft | 493 kts | 315° |
| 2026-04-22 17:46 | 13.64044 | 92.62451 | 31856 ft | 492 kts | 315° |
| 2026-04-22 17:47 | 13.68918 | 92.57580 | 31856 ft | 492 kts | 315° |
| 2026-04-22 17:47 | 13.73824 | 92.52672 | 31857 ft | 492 kts | 315° |
| 2026-04-22 17:48 | 13.77894 | 92.48599 | 31854 ft | 492 kts | 315° |
| 2026-04-22 17:48 | 13.83629 | 92.42856 | 31856 ft | 492 kts | 315° |
| 2026-04-22 17:49 | 13.88498 | 92.37977 | 31858 ft | 491 kts | 314° |
| 2026-04-22 17:49 | 13.93384 | 92.33062 | 31860 ft | 491 kts | 314° |
| 2026-04-22 17:50 | 13.98185 | 92.28060 | 31858 ft | 491 kts | 313° |
| 2026-04-22 17:50 | 14.02955 | 92.23024 | 31843 ft | 491 kts | 313° |
| 2026-04-22 17:51 | 14.07726 | 92.17992 | 31858 ft | 491 kts | 313° |
| 2026-04-22 17:51 | 14.12468 | 92.12998 | 31859 ft | 491 kts | 313° |
| 2026-04-22 17:52 | 14.17246 | 92.07967 | 31843 ft | 491 kts | 313° |
| 2026-04-22 17:52 | 14.22017 | 92.02940 | 31848 ft | 491 kts | 313° |
| 2026-04-22 17:53 | 14.26810 | 91.97925 | 31849 ft | 491 kts | 313° |
| 2026-04-22 17:53 | 14.31618 | 91.92992 | 31854 ft | 491 kts | 314° |
| 2026-04-22 17:54 | 14.36469 | 91.88035 | 31854 ft | 491 kts | 314° |
| 2026-04-22 17:54 | 14.41315 | 91.83074 | 31856 ft | 491 kts | 314° |
| 2026-04-22 17:55 | 14.45338 | 91.78950 | 31855 ft | 491 kts | 313° |
| 2026-04-22 17:55 | 14.50961 | 91.73179 | 31850 ft | 491 kts | 313° |
| 2026-04-22 17:56 | 14.55801 | 91.68210 | 31854 ft | 491 kts | 313° |
| 2026-04-22 17:56 | 14.60639 | 91.63239 | 31857 ft | 490 kts | 313° |
| 2026-04-22 17:57 | 14.65471 | 91.58271 | 31848 ft | 490 kts | 313° |
| 2026-04-22 17:57 | 14.70270 | 91.53333 | 31851 ft | 490 kts | 313° |
| 2026-04-22 17:58 | 14.75096 | 91.48364 | 31846 ft | 490 kts | 313° |
| 2026-04-22 17:58 | 14.79922 | 91.43392 | 31851 ft | 490 kts | 313° |
| 2026-04-22 17:59 | 14.84743 | 91.38420 | 31852 ft | 490 kts | 313° |
| 2026-04-22 17:59 | 14.89560 | 91.33440 | 31859 ft | 490 kts | 313° |
| 2026-04-22 18:00 | 14.93564 | 91.29302 | 31854 ft | 490 kts | 313° |
| 2026-04-22 18:00 | 14.99151 | 91.23531 | 31849 ft | 488 kts | 313° |
| 2026-04-22 18:01 | 15.03949 | 91.18571 | 31850 ft | 488 kts | 313° |
| 2026-04-22 18:01 | 15.08747 | 91.13609 | 31850 ft | 488 kts | 313° |
| 2026-04-22 18:02 | 15.13508 | 91.08681 | 31852 ft | 487 kts | 313° |
| 2026-04-22 18:02 | 15.18296 | 91.03722 | 31849 ft | 487 kts | 313° |
| 2026-04-22 18:03 | 15.23087 | 90.98756 | 31846 ft | 487 kts | 313° |
| 2026-04-22 18:03 | 15.27874 | 90.93791 | 31849 ft | 487 kts | 313° |
| 2026-04-22 18:04 | 15.32663 | 90.88820 | 31844 ft | 487 kts | 312° |
| 2026-04-22 18:04 | 15.37418 | 90.83881 | 31840 ft | 487 kts | 312° |
| 2026-04-22 18:05 | 15.42202 | 90.78909 | 31843 ft | 487 kts | 312° |
| 2026-04-22 18:05 | 15.46979 | 90.73930 | 31847 ft | 487 kts | 312° |
| 2026-04-22 18:06 | 15.51724 | 90.68984 | 31838 ft | 487 kts | 312° |
| 2026-04-22 18:06 | 15.56502 | 90.64006 | 31840 ft | 487 kts | 312° |
| 2026-04-22 18:07 | 15.60470 | 90.59871 | 31845 ft | 487 kts | 312° |
| 2026-04-22 18:07 | 15.66053 | 90.54048 | 31843 ft | 486 kts | 312° |
| 2026-04-22 18:08 | 15.70820 | 90.49074 | 31841 ft | 486 kts | 312° |
| 2026-04-22 18:08 | 15.75587 | 90.44095 | 31840 ft | 486 kts | 312° |
| 2026-04-22 18:09 | 15.80317 | 90.39151 | 31841 ft | 486 kts | 312° |
| 2026-04-22 18:09 | 15.85078 | 90.34172 | 31840 ft | 486 kts | 311° |
| 2026-04-22 18:10 | 15.89841 | 90.29186 | 31840 ft | 486 kts | 311° |
| 2026-04-22 18:10 | 15.94600 | 90.24201 | 31837 ft | 486 kts | 311° |
| 2026-04-22 18:11 | 15.99326 | 90.19248 | 31837 ft | 486 kts | 311° |
| 2026-04-22 18:11 | 16.04098 | 90.14293 | 31840 ft | 484 kts | 312° |
| 2026-04-22 18:12 | 16.08901 | 90.09383 | 31837 ft | 484 kts | 312° |
| 2026-04-22 18:12 | 16.12901 | 90.05307 | 31837 ft | 484 kts | 312° |
| 2026-04-22 18:13 | 16.18526 | 89.99566 | 31838 ft | 484 kts | 312° |
| 2026-04-22 18:13 | 16.23322 | 89.94665 | 31832 ft | 483 kts | 312° |
| 2026-04-22 18:14 | 16.28081 | 89.89795 | 31830 ft | 483 kts | 312° |
| 2026-04-22 18:14 | 16.32870 | 89.84891 | 31831 ft | 483 kts | 312° |
| 2026-04-22 18:15 | 16.37655 | 89.79989 | 31832 ft | 481 kts | 312° |
| 2026-04-22 18:15 | 16.42417 | 89.75108 | 31830 ft | 480 kts | 312° |
| 2026-04-22 18:16 | 16.47144 | 89.70256 | 31832 ft | 480 kts | 312° |
| 2026-04-22 18:16 | 16.51900 | 89.65373 | 31829 ft | 480 kts | 311° |
| 2026-04-22 18:17 | 16.56657 | 89.60485 | 31829 ft | 480 kts | 311° |
| 2026-04-22 18:17 | 16.61413 | 89.55592 | 31828 ft | 480 kts | 311° |
| 2026-04-22 18:18 | 16.66159 | 89.50697 | 31829 ft | 480 kts | 311° |
| 2026-04-22 18:18 | 16.70879 | 89.45830 | 31833 ft | 480 kts | 312° |
| 2026-04-22 18:19 | 16.75619 | 89.40944 | 31829 ft | 479 kts | 312° |
| 2026-04-22 18:19 | 16.80352 | 89.36063 | 31823 ft | 479 kts | 312° |
| 2026-04-22 18:20 | 16.85088 | 89.31175 | 31823 ft | 479 kts | 312° |
| 2026-04-22 18:20 | 16.89785 | 89.26323 | 31823 ft | 479 kts | 312° |
| 2026-04-22 18:21 | 16.94522 | 89.21427 | 31826 ft | 479 kts | 312° |
| 2026-04-22 18:21 | 16.99260 | 89.16526 | 31826 ft | 480 kts | 312° |
| 2026-04-22 18:22 | 17.03999 | 89.11620 | 31825 ft | 480 kts | 312° |
| 2026-04-22 18:22 | 17.07935 | 89.07544 | 31824 ft | 479 kts | 312° |
| 2026-04-22 18:23 | 17.13427 | 89.01849 | 31822 ft | 478 kts | 312° |
| 2026-04-22 18:23 | 17.18149 | 88.96951 | 31823 ft | 478 kts | 312° |
| 2026-04-22 18:24 | 17.24468 | 88.90453 | 31823 ft | 479 kts | 312° |
| 2026-04-22 18:25 | 17.32387 | 88.82372 | 31825 ft | 478 kts | 312° |
| 2026-04-22 18:25 | 17.36372 | 88.78303 | 31824 ft | 478 kts | 312° |
| 2026-04-22 18:26 | 17.43449 | 88.71067 | 31821 ft | 474 kts | 312° |
| 2026-04-22 18:26 | 17.48162 | 88.66243 | 31821 ft | 473 kts | 312° |
| 2026-04-22 18:27 | 17.52861 | 88.61428 | 31821 ft | 473 kts | 312° |
| 2026-04-22 18:27 | 17.57537 | 88.56634 | 31821 ft | 473 kts | 312° |
| 2026-04-22 18:28 | 17.62243 | 88.51806 | 31821 ft | 473 kts | 312° |
| 2026-04-22 18:28 | 17.66944 | 88.46979 | 31820 ft | 473 kts | 311° |
| 2026-04-22 18:29 | 17.71644 | 88.42149 | 32190 ft | 472 kts | 311° |
| 2026-04-22 18:29 | 17.73990 | 88.39738 | 32520 ft | 471 kts | 311° |
| 2026-04-22 18:29 | 17.76323 | 88.37340 | 32887 ft | 469 kts | 311° |
| 2026-04-22 18:30 | 17.78618 | 88.34978 | 33190 ft | 468 kts | 311° |
| 2026-04-22 18:30 | 17.83255 | 88.30190 | 33738 ft | 467 kts | 310° |
| 2026-04-22 18:31 | 17.87887 | 88.25409 | 33809 ft | 467 kts | 311° |
| 2026-04-22 18:31 | 17.92516 | 88.20633 | 33815 ft | 466 kts | 311° |
| 2026-04-22 18:32 | 17.97109 | 88.15893 | 33812 ft | 466 kts | 310° |
| 2026-04-22 18:32 | 18.01740 | 88.11111 | 33806 ft | 466 kts | 310° |
| 2026-04-22 18:33 | 18.06374 | 88.06321 | 33814 ft | 469 kts | 310° |
| 2026-04-22 18:33 | 18.11033 | 88.01501 | 33809 ft | 470 kts | 310° |
| 2026-04-22 18:34 | 18.15663 | 87.96708 | 33805 ft | 471 kts | 310° |
| 2026-04-22 18:34 | 18.20330 | 87.91874 | 33803 ft | 471 kts | 310° |
| 2026-04-22 18:35 | 18.24994 | 87.87038 | 33807 ft | 471 kts | 310° |
| 2026-04-22 18:35 | 18.29663 | 87.82209 | 33799 ft | 471 kts | 310° |
| 2026-04-22 18:36 | 18.34337 | 87.77436 | 33804 ft | 471 kts | 310° |
| 2026-04-22 18:36 | 18.39049 | 87.72641 | 33803 ft | 471 kts | 310° |
| 2026-04-22 18:37 | 18.43760 | 87.67845 | 33808 ft | 470 kts | 310° |
| 2026-04-22 18:37 | 18.48427 | 87.63091 | 33797 ft | 465 kts | 310° |
| 2026-04-22 18:38 | 18.53074 | 87.58346 | 33799 ft | 465 kts | 310° |
| 2026-04-22 18:38 | 18.57692 | 87.53626 | 33797 ft | 465 kts | 310° |
| 2026-04-22 18:39 | 18.64661 | 87.46501 | 33797 ft | 465 kts | 310° |
| 2026-04-22 18:39 | 18.69306 | 87.41746 | 33799 ft | 465 kts | 310° |
| 2026-04-22 18:40 | 18.73920 | 87.37020 | 33794 ft | 465 kts | 310° |
| 2026-04-22 18:40 | 18.78558 | 87.32266 | 33800 ft | 465 kts | 310° |
| 2026-04-22 18:41 | 18.83199 | 87.27505 | 33780 ft | 465 kts | 309° |
| 2026-04-22 18:41 | 18.87831 | 87.22747 | 33788 ft | 465 kts | 309° |
| 2026-04-22 18:42 | 18.92454 | 87.17983 | 33792 ft | 464 kts | 309° |
| 2026-04-22 18:42 | 18.97049 | 87.13248 | 33790 ft | 464 kts | 309° |
| 2026-04-22 18:43 | 19.01677 | 87.08483 | 33783 ft | 464 kts | 309° |
| 2026-04-22 18:43 | 19.06304 | 87.03717 | 33792 ft | 464 kts | 309° |
| 2026-04-22 18:44 | 19.10927 | 86.98950 | 33789 ft | 464 kts | 309° |
| 2026-04-22 18:44 | 19.15541 | 86.94190 | 33786 ft | 463 kts | 309° |
| 2026-04-22 18:45 | 19.20131 | 86.89449 | 33782 ft | 465 kts | 309° |
| 2026-04-22 18:45 | 19.24756 | 86.84668 | 33792 ft | 465 kts | 309° |
| 2026-04-22 18:46 | 19.29379 | 86.79886 | 33794 ft | 465 kts | 309° |
| 2026-04-22 18:46 | 19.34003 | 86.75099 | 33779 ft | 465 kts | 309° |
| 2026-04-22 18:47 | 19.38594 | 86.70342 | 33775 ft | 465 kts | 309° |
| 2026-04-22 18:47 | 19.43212 | 86.65553 | 33800 ft | 465 kts | 309° |
| 2026-04-22 18:48 | 19.47822 | 86.60768 | 33782 ft | 463 kts | 309° |
| 2026-04-22 18:48 | 19.52410 | 86.55988 | 33779 ft | 462 kts | 309° |
| 2026-04-22 18:49 | 19.56963 | 86.51245 | 33780 ft | 461 kts | 309° |
| 2026-04-22 18:49 | 19.61540 | 86.46480 | 33773 ft | 461 kts | 309° |
| 2026-04-22 18:50 | 19.66103 | 86.41696 | 33774 ft | 461 kts | 309° |
| 2026-04-22 18:50 | 19.70657 | 86.36904 | 33774 ft | 461 kts | 309° |
| 2026-04-22 18:51 | 19.75181 | 86.32141 | 33768 ft | 461 kts | 309° |
| 2026-04-22 18:51 | 19.79729 | 86.27352 | 33767 ft | 460 kts | 309° |
| 2026-04-22 18:52 | 19.84264 | 86.22573 | 33766 ft | 459 kts | 309° |
| 2026-04-22 18:52 | 19.88803 | 86.17786 | 33771 ft | 460 kts | 308° |
| 2026-04-22 18:53 | 19.93381 | 86.13015 | 33761 ft | 462 kts | 309° |
| 2026-04-22 18:53 | 19.97985 | 86.08304 | 33761 ft | 462 kts | 309° |
| 2026-04-22 18:54 | 20.02618 | 86.03561 | 33759 ft | 462 kts | 309° |
| 2026-04-22 18:54 | 20.07240 | 85.98807 | 33755 ft | 462 kts | 309° |
| 2026-04-22 18:55 | 20.11855 | 85.94055 | 33751 ft | 460 kts | 309° |
| 2026-04-22 18:55 | 20.16419 | 85.89350 | 33749 ft | 460 kts | 309° |
| 2026-04-22 18:56 | 20.21014 | 85.84609 | 33744 ft | 460 kts | 309° |
| 2026-04-22 18:56 | 20.25605 | 85.79867 | 33748 ft | 460 kts | 309° |
| 2026-04-22 18:57 | 20.30127 | 85.75063 | 33744 ft | 457 kts | 305° |
| 2026-04-22 18:57 | 20.34230 | 85.69994 | 33747 ft | 454 kts | 303° |
| 2026-04-22 18:58 | 20.38249 | 85.64814 | 33749 ft | 454 kts | 303° |
| 2026-04-22 18:58 | 20.42287 | 85.59640 | 33780 ft | 454 kts | 303° |
| 2026-04-22 18:59 | 20.46346 | 85.54471 | 33756 ft | 455 kts | 303° |
| 2026-04-22 18:59 | 20.50385 | 85.49334 | 33751 ft | 455 kts | 303° |
| 2026-04-22 19:00 | 20.54448 | 85.44163 | 33759 ft | 455 kts | 303° |
| 2026-04-22 19:00 | 20.58516 | 85.38980 | 33757 ft | 456 kts | 303° |
| 2026-04-22 19:01 | 20.62585 | 85.33789 | 33757 ft | 456 kts | 303° |
| 2026-04-22 19:01 | 20.66630 | 85.28626 | 33755 ft | 456 kts | 303° |
| 2026-04-22 19:02 | 20.70699 | 85.23426 | 33757 ft | 456 kts | 303° |
| 2026-04-22 19:02 | 20.74768 | 85.18223 | 33775 ft | 456 kts | 302° |
| 2026-04-22 19:03 | 20.78835 | 85.13016 | 33755 ft | 457 kts | 302° |
| 2026-04-22 19:03 | 20.82875 | 85.07837 | 33751 ft | 457 kts | 302° |
| 2026-04-22 19:04 | 20.86935 | 85.02611 | 33754 ft | 457 kts | 302° |
| 2026-04-22 19:04 | 20.91002 | 84.97379 | 33756 ft | 458 kts | 303° |
| 2026-04-22 19:05 | 20.95073 | 84.92145 | 33760 ft | 458 kts | 303° |
| 2026-04-22 19:05 | 20.99118 | 84.86944 | 33760 ft | 458 kts | 303° |
| 2026-04-22 19:06 | 21.03189 | 84.81704 | 33763 ft | 458 kts | 303° |
| 2026-04-22 19:07 | 21.09281 | 84.73853 | 33764 ft | 455 kts | 303° |
| 2026-04-22 19:07 | 21.13326 | 84.68633 | 33769 ft | 455 kts | 303° |
| 2026-04-22 19:08 | 21.17340 | 84.63447 | 33772 ft | 455 kts | 302° |
| 2026-04-22 19:08 | 21.21382 | 84.58219 | 33778 ft | 456 kts | 302° |
| 2026-04-22 19:09 | 21.25427 | 84.52985 | 33781 ft | 456 kts | 302° |
| 2026-04-22 19:09 | 21.29468 | 84.47753 | 33777 ft | 456 kts | 302° |
| 2026-04-22 19:10 | 21.33482 | 84.42548 | 33787 ft | 456 kts | 302° |
| 2026-04-22 19:10 | 21.37515 | 84.37306 | 33787 ft | 456 kts | 302° |
| 2026-04-22 19:11 | 21.41538 | 84.32065 | 33772 ft | 454 kts | 302° |
| 2026-04-22 19:11 | 21.45554 | 84.26834 | 33780 ft | 454 kts | 302° |
| 2026-04-22 19:12 | 21.49549 | 84.21631 | 33777 ft | 455 kts | 302° |
| 2026-04-22 19:12 | 21.53572 | 84.16392 | 33758 ft | 454 kts | 302° |
| 2026-04-22 19:13 | 21.57587 | 84.11157 | 33763 ft | 454 kts | 302° |
| 2026-04-22 19:13 | 21.61604 | 84.05914 | 33745 ft | 454 kts | 302° |
| 2026-04-22 19:14 | 21.65591 | 84.00704 | 33741 ft | 454 kts | 302° |
| 2026-04-22 19:14 | 21.69632 | 83.95476 | 33761 ft | 455 kts | 302° |
| 2026-04-22 19:15 | 21.73012 | 83.91166 | 33753 ft | 453 kts | 302° |
| 2026-04-22 19:15 | 21.77764 | 83.85118 | 33748 ft | 452 kts | 302° |
| 2026-04-22 19:16 | 21.81795 | 83.79977 | 33732 ft | 453 kts | 302° |
| 2026-04-22 19:16 | 21.85850 | 83.74798 | 33737 ft | 452 kts | 302° |
| 2026-04-22 19:17 | 21.89904 | 83.69617 | 33737 ft | 452 kts | 302° |
| 2026-04-22 19:17 | 21.93955 | 83.64433 | 33737 ft | 452 kts | 302° |
| 2026-04-22 19:18 | 21.97972 | 83.59288 | 33739 ft | 452 kts | 302° |
| 2026-04-22 19:18 | 22.02019 | 83.54100 | 33729 ft | 452 kts | 302° |
| 2026-04-22 19:19 | 22.06064 | 83.48909 | 33739 ft | 452 kts | 302° |
| 2026-04-22 19:19 | 22.10029 | 83.43665 | 33742 ft | 450 kts | 300° |
| 2026-04-22 19:20 | 22.13889 | 83.38406 | 33750 ft | 450 kts | 300° |
| 2026-04-22 19:20 | 22.17767 | 83.33120 | 33736 ft | 451 kts | 301° |
| 2026-04-22 19:21 | 22.21754 | 83.27863 | 33746 ft | 452 kts | 301° |
| 2026-04-22 19:21 | 22.25775 | 83.22653 | 33745 ft | 452 kts | 302° |
| 2026-04-22 19:22 | 22.29800 | 83.17435 | 33757 ft | 452 kts | 301° |
| 2026-04-22 19:22 | 22.33789 | 83.12252 | 33762 ft | 451 kts | 301° |
| 2026-04-22 19:23 | 22.37789 | 83.07043 | 33760 ft | 450 kts | 301° |
| 2026-04-22 19:23 | 22.41786 | 83.01833 | 33760 ft | 450 kts | 301° |
| 2026-04-22 19:24 | 22.45782 | 82.96618 | 33776 ft | 450 kts | 301° |
| 2026-04-22 19:24 | 22.49746 | 82.91440 | 33772 ft | 450 kts | 301° |
| 2026-04-22 19:25 | 22.53735 | 82.86226 | 33774 ft | 449 kts | 301° |
| 2026-04-22 19:25 | 22.57717 | 82.81014 | 33779 ft | 449 kts | 301° |
| 2026-04-22 19:26 | 22.61698 | 82.75798 | 33782 ft | 450 kts | 302° |
| 2026-04-22 19:26 | 22.65631 | 82.70646 | 33780 ft | 445 kts | 302° |
| 2026-04-22 19:27 | 22.69565 | 82.65481 | 33782 ft | 444 kts | 302° |
| 2026-04-22 19:27 | 22.73485 | 82.60315 | 33781 ft | 444 kts | 301° |
| 2026-04-22 19:28 | 22.77370 | 82.55185 | 33784 ft | 444 kts | 301° |
| 2026-04-22 19:28 | 22.81293 | 82.50014 | 33787 ft | 444 kts | 301° |
| 2026-04-22 19:29 | 22.85213 | 82.44847 | 33788 ft | 444 kts | 301° |
| 2026-04-22 19:29 | 22.89132 | 82.39677 | 33809 ft | 444 kts | 301° |
| 2026-04-22 19:30 | 22.92391 | 82.35374 | 33809 ft | 444 kts | 302° |
| 2026-04-22 19:30 | 22.96932 | 82.29375 | 33795 ft | 442 kts | 302° |
| 2026-04-22 19:31 | 23.00829 | 82.24217 | 33798 ft | 442 kts | 302° |
| 2026-04-22 19:31 | 23.04721 | 82.19061 | 33796 ft | 441 kts | 301° |
| 2026-04-22 19:32 | 23.08621 | 82.13961 | 33795 ft | 442 kts | 302° |
| 2026-04-22 19:32 | 23.12607 | 82.08863 | 33797 ft | 443 kts | 302° |
| 2026-04-22 19:33 | 23.16603 | 82.03768 | 33798 ft | 443 kts | 302° |
| 2026-04-22 19:33 | 23.20594 | 81.98671 | 33795 ft | 443 kts | 302° |
| 2026-04-22 19:34 | 23.24551 | 81.93607 | 33796 ft | 442 kts | 303° |
| 2026-04-22 19:34 | 23.25767 | 81.92049 | 33793 ft | 442 kts | 303° |
| 2026-04-22 19:35 | 23.26090 | 81.91635 | 33799 ft | 442 kts | 303° |
| 2026-04-22 19:35 | 23.30041 | 81.86573 | 33794 ft | 442 kts | 303° |
| 2026-04-22 19:36 | 23.31488 | 81.84717 | 33795 ft | 442 kts | 303° |
| 2026-04-22 19:36 | 23.35464 | 81.79616 | 33792 ft | 442 kts | 303° |
| 2026-04-22 19:37 | 23.39436 | 81.74512 | 33790 ft | 442 kts | 303° |
| 2026-04-22 19:37 | 23.43411 | 81.69401 | 33793 ft | 442 kts | 303° |
| 2026-04-22 19:38 | 23.47359 | 81.64318 | 33790 ft | 443 kts | 303° |
| 2026-04-22 19:38 | 23.51342 | 81.59185 | 33787 ft | 444 kts | 303° |
| 2026-04-22 19:39 | 23.55335 | 81.54033 | 33788 ft | 445 kts | 304° |
| 2026-04-22 19:39 | 23.59331 | 81.48874 | 33788 ft | 445 kts | 304° |
| 2026-04-22 19:40 | 23.63287 | 81.43744 | 33787 ft | 445 kts | 304° |
| 2026-04-22 19:40 | 23.67275 | 81.38567 | 33784 ft | 446 kts | 304° |
| 2026-04-22 19:41 | 23.71266 | 81.33393 | 33787 ft | 446 kts | 304° |
| 2026-04-22 19:41 | 23.75259 | 81.28215 | 33787 ft | 446 kts | 304° |
| 2026-04-22 19:42 | 23.79236 | 81.23053 | 33788 ft | 449 kts | 304° |
| 2026-04-22 19:42 | 23.83257 | 81.17826 | 33779 ft | 450 kts | 306° |
| 2026-04-22 19:43 | 23.89317 | 81.09942 | 33778 ft | 455 kts | 306° |
| 2026-04-22 19:43 | 23.93405 | 81.04614 | 33782 ft | 458 kts | 306° |
| 2026-04-22 19:44 | 23.97474 | 80.99309 | 33782 ft | 458 kts | 306° |
| 2026-04-22 19:44 | 24.01535 | 80.94013 | 33782 ft | 452 kts | 306° |
| 2026-04-22 19:45 | 24.05572 | 80.88735 | 33780 ft | 453 kts | 306° |
| 2026-04-22 19:45 | 24.09616 | 80.83440 | 33779 ft | 454 kts | 306° |
| 2026-04-22 19:46 | 24.13642 | 80.78165 | 33781 ft | 455 kts | 307° |
| 2026-04-22 19:46 | 24.17693 | 80.72831 | 33782 ft | 456 kts | 307° |
| 2026-04-22 19:47 | 24.21749 | 80.67493 | 33780 ft | 456 kts | 307° |
| 2026-04-22 19:47 | 24.25806 | 80.62157 | 33779 ft | 456 kts | 307° |
| 2026-04-22 19:48 | 24.29840 | 80.56852 | 33782 ft | 456 kts | 307° |
| 2026-04-22 19:48 | 24.33898 | 80.51507 | 33781 ft | 457 kts | 307° |
| 2026-04-22 19:49 | 24.37970 | 80.46138 | 33779 ft | 458 kts | 307° |
| 2026-04-22 19:49 | 24.42044 | 80.40759 | 33784 ft | 459 kts | 307° |
| 2026-04-22 19:50 | 24.46129 | 80.35360 | 33775 ft | 460 kts | 307° |
| 2026-04-22 19:50 | 24.50184 | 80.29997 | 33774 ft | 460 kts | 307° |
| 2026-04-22 19:51 | 24.54261 | 80.24597 | 33778 ft | 459 kts | 307° |
| 2026-04-22 19:51 | 24.58325 | 80.19209 | 33771 ft | 459 kts | 307° |
| 2026-04-22 19:52 | 24.62408 | 80.13788 | 33777 ft | 460 kts | 307° |
| 2026-04-22 19:52 | 24.66463 | 80.08400 | 33775 ft | 461 kts | 307° |
| 2026-04-22 19:53 | 24.70537 | 80.02958 | 33770 ft | 462 kts | 307° |
| 2026-04-22 19:53 | 24.74622 | 79.97499 | 33773 ft | 462 kts | 307° |
| 2026-04-22 19:54 | 24.78715 | 79.92038 | 33774 ft | 462 kts | 307° |
| 2026-04-22 19:54 | 24.82766 | 79.86604 | 33774 ft | 462 kts | 305° |
| 2026-04-22 19:55 | 24.86210 | 79.80667 | 33777 ft | 460 kts | 297° |
| 2026-04-22 19:55 | 24.89246 | 79.74456 | 33773 ft | 461 kts | 296° |
| 2026-04-22 19:56 | 24.92264 | 79.68267 | 33779 ft | 462 kts | 297° |
| 2026-04-22 19:56 | 24.95343 | 79.62060 | 33779 ft | 462 kts | 297° |
| 2026-04-22 19:57 | 24.98437 | 79.55862 | 33779 ft | 462 kts | 297° |
| 2026-04-22 19:57 | 25.01531 | 79.49659 | 33782 ft | 462 kts | 297° |
| 2026-04-22 19:58 | 25.04623 | 79.43451 | 33777 ft | 462 kts | 297° |
| 2026-04-22 19:58 | 25.07690 | 79.37281 | 33776 ft | 463 kts | 297° |
| 2026-04-22 20:00 | 25.18503 | 79.15465 | 33781 ft | 469 kts | 297° |
| 2026-04-22 20:01 | 25.21643 | 79.09110 | 33790 ft | 474 kts | 297° |
| 2026-04-22 20:01 | 25.24804 | 79.02686 | 33784 ft | 477 kts | 297° |
| 2026-04-22 20:02 | 25.27965 | 78.96239 | 33784 ft | 477 kts | 297° |
| 2026-04-22 20:02 | 25.31111 | 78.89831 | 33781 ft | 477 kts | 297° |
| 2026-04-22 20:03 | 25.34280 | 78.83382 | 33785 ft | 477 kts | 297° |
| 2026-04-22 20:03 | 25.37446 | 78.76930 | 33791 ft | 477 kts | 297° |
| 2026-04-22 20:04 | 25.40609 | 78.70475 | 33787 ft | 477 kts | 297° |
| 2026-04-22 20:04 | 25.43771 | 78.64014 | 33794 ft | 478 kts | 297° |
| 2026-04-22 20:05 | 25.46907 | 78.57595 | 33782 ft | 478 kts | 297° |
| 2026-04-22 20:05 | 25.50062 | 78.51127 | 33793 ft | 477 kts | 297° |
| 2026-04-22 20:06 | 25.53210 | 78.44667 | 33784 ft | 477 kts | 297° |
| 2026-04-22 20:06 | 25.56378 | 78.38219 | 33789 ft | 477 kts | 299° |
| 2026-04-22 20:07 | 25.60256 | 78.32328 | 33788 ft | 479 kts | 313° |
| 2026-04-22 20:07 | 25.65528 | 78.27815 | 33792 ft | 483 kts | 329° |
| 2026-04-22 20:08 | 25.71701 | 78.24815 | 33791 ft | 486 kts | 337° |
| 2026-04-22 20:08 | 25.78041 | 78.22207 | 33794 ft | 486 kts | 337° |
| 2026-04-22 20:09 | 25.84301 | 78.19520 | 33791 ft | 485 kts | 336° |
| 2026-04-22 20:09 | 25.90565 | 78.16727 | 33785 ft | 485 kts | 336° |
| 2026-04-22 20:10 | 25.96818 | 78.13911 | 33785 ft | 485 kts | 336° |
| 2026-04-22 20:10 | 26.03076 | 78.11091 | 33778 ft | 485 kts | 336° |
| 2026-04-22 20:11 | 26.09290 | 78.08292 | 33785 ft | 485 kts | 336° |
| 2026-04-22 20:11 | 26.15541 | 78.05474 | 33779 ft | 485 kts | 336° |
| 2026-04-22 20:12 | 26.21800 | 78.02650 | 33776 ft | 485 kts | 336° |
| 2026-04-22 20:12 | 26.26998 | 78.00301 | 33776 ft | 485 kts | 336° |
| 2026-04-22 20:13 | 26.34272 | 77.97011 | 33778 ft | 485 kts | 336° |
| 2026-04-22 20:13 | 26.40527 | 77.94179 | 33778 ft | 485 kts | 336° |
| 2026-04-22 20:14 | 26.46776 | 77.91342 | 33779 ft | 485 kts | 336° |
| 2026-04-22 20:14 | 26.53025 | 77.88517 | 33771 ft | 485 kts | 336° |
| 2026-04-22 20:15 | 26.59255 | 77.85755 | 33760 ft | 485 kts | 336° |
| 2026-04-22 20:15 | 26.65526 | 77.82984 | 33766 ft | 485 kts | 336° |
| 2026-04-22 20:16 | 26.71798 | 77.80207 | 33758 ft | 485 kts | 336° |
| 2026-04-22 20:16 | 26.78074 | 77.77423 | 33757 ft | 485 kts | 336° |
| 2026-04-22 20:17 | 26.84302 | 77.74656 | 33752 ft | 485 kts | 336° |
| 2026-04-22 20:17 | 26.90572 | 77.71867 | 33752 ft | 485 kts | 336° |
| 2026-04-22 20:18 | 26.96840 | 77.69075 | 33746 ft | 485 kts | 336° |
| 2026-04-22 20:18 | 27.03116 | 77.66277 | 33752 ft | 485 kts | 336° |
| 2026-04-22 20:19 | 27.09348 | 77.63495 | 33749 ft | 485 kts | 336° |
| 2026-04-22 20:19 | 27.15627 | 77.60688 | 33746 ft | 486 kts | 336° |
| 2026-04-22 20:20 | 27.21967 | 77.58046 | 33756 ft | 487 kts | 339° |
| 2026-04-22 20:20 | 27.28442 | 77.55711 | 33748 ft | 490 kts | 340° |
| 2026-04-22 20:21 | 27.34905 | 77.53434 | 33749 ft | 490 kts | 340° |
| 2026-04-22 20:21 | 27.41399 | 77.51117 | 33755 ft | 490 kts | 340° |
| 2026-04-22 20:22 | 27.47895 | 77.48781 | 33752 ft | 490 kts | 340° |
| 2026-04-22 20:22 | 27.54389 | 77.46438 | 33755 ft | 490 kts | 340° |
| 2026-04-22 20:23 | 27.60891 | 77.44084 | 33755 ft | 491 kts | 340° |
| 2026-04-22 20:23 | 27.66811 | 77.41939 | 33755 ft | 491 kts | 340° |
| 2026-04-22 20:24 | 27.68713 | 77.41251 | 33755 ft | 491 kts | 340° |
| 2026-04-22 20:24 | 27.71488 | 77.40245 | 33755 ft | 491 kts | 340° |
| 2026-04-22 20:25 | 27.77289 | 77.38141 | 33752 ft | 491 kts | 340° |
| 2026-04-22 20:25 | 27.83748 | 77.35797 | 33760 ft | 491 kts | 340° |
| 2026-04-22 20:26 | 27.90250 | 77.33433 | 33765 ft | 491 kts | 340° |
| 2026-04-22 20:26 | 27.96757 | 77.31065 | 33763 ft | 491 kts | 340° |
| 2026-04-22 20:27 | 28.03259 | 77.28695 | 33763 ft | 491 kts | 340° |
| 2026-04-22 20:27 | 28.09717 | 77.26339 | 33766 ft | 491 kts | 340° |
| 2026-04-22 20:28 | 28.16210 | 77.23966 | 33765 ft | 491 kts | 340° |
| 2026-04-22 20:28 | 28.22714 | 77.21587 | 33772 ft | 492 kts | 340° |
| 2026-04-22 20:29 | 28.29237 | 77.19197 | 33780 ft | 493 kts | 340° |
| 2026-04-22 20:29 | 28.35722 | 77.16815 | 33796 ft | 493 kts | 340° |
| 2026-04-22 20:30 | 28.42236 | 77.14416 | 33796 ft | 492 kts | 340° |
| 2026-04-22 20:30 | 28.48692 | 77.11878 | 33801 ft | 490 kts | 335° |
| 2026-04-22 20:31 | 28.54604 | 77.08136 | 33801 ft | 485 kts | 321° |
| 2026-04-22 20:31 | 28.59458 | 77.02863 | 33802 ft | 481 kts | 307° |
| 2026-04-22 20:32 | 28.63070 | 76.96555 | 33799 ft | 479 kts | 296° |
| 2026-04-22 20:32 | 28.66054 | 76.89790 | 33789 ft | 478 kts | 294° |
| 2026-04-22 20:33 | 28.69009 | 76.83001 | 33778 ft | 479 kts | 295° |
| 2026-04-22 20:33 | 28.72033 | 76.76240 | 33773 ft | 479 kts | 296° |
| 2026-04-22 20:34 | 28.75064 | 76.69540 | 33771 ft | 479 kts | 296° |
| 2026-04-22 20:34 | 28.78117 | 76.62788 | 33771 ft | 479 kts | 296° |
| 2026-04-22 20:35 | 28.81162 | 76.56037 | 33768 ft | 479 kts | 296° |
| 2026-04-22 20:35 | 28.84204 | 76.49276 | 33765 ft | 479 kts | 296° |
| 2026-04-22 20:36 | 28.87223 | 76.42554 | 33769 ft | 480 kts | 296° |
| 2026-04-22 20:36 | 28.90264 | 76.35773 | 33760 ft | 480 kts | 296° |
| 2026-04-22 20:37 | 28.93302 | 76.28988 | 33760 ft | 480 kts | 296° |
| 2026-04-22 20:37 | 28.96337 | 76.22198 | 33761 ft | 480 kts | 296° |
| 2026-04-22 20:38 | 28.99344 | 76.15457 | 33754 ft | 480 kts | 296° |
| 2026-04-22 20:38 | 29.02358 | 76.08656 | 33755 ft | 480 kts | 296° |
| 2026-04-22 20:39 | 29.05368 | 76.01846 | 33749 ft | 480 kts | 296° |
| 2026-04-22 20:39 | 29.08386 | 75.95034 | 33758 ft | 480 kts | 296° |
| 2026-04-22 20:40 | 29.11390 | 75.88255 | 33749 ft | 482 kts | 296° |
| 2026-04-22 20:40 | 29.14414 | 75.81420 | 33739 ft | 482 kts | 296° |
| 2026-04-22 20:41 | 29.17430 | 75.74590 | 33744 ft | 481 kts | 296° |
| 2026-04-22 20:41 | 29.20446 | 75.67749 | 33744 ft | 481 kts | 296° |
| 2026-04-22 20:42 | 29.23437 | 75.60951 | 33737 ft | 481 kts | 296° |
| 2026-04-22 20:42 | 29.26443 | 75.54108 | 33717 ft | 481 kts | 296° |
| 2026-04-22 20:43 | 29.29471 | 75.47278 | 33725 ft | 481 kts | 297° |
| 2026-04-22 20:43 | 29.32575 | 75.40486 | 33739 ft | 481 kts | 298° |
| 2026-04-22 20:44 | 29.36139 | 75.34081 | 33712 ft | 480 kts | 308° |
| 2026-04-22 20:44 | 29.40884 | 75.28705 | 33716 ft | 481 kts | 322° |
| 2026-04-22 20:45 | 29.46626 | 75.24778 | 33732 ft | 482 kts | 335° |
| 2026-04-22 20:45 | 29.53020 | 75.22437 | 33720 ft | 485 kts | 348° |
| 2026-04-22 20:46 | 29.63084 | 75.22094 | 33723 ft | 488 kts | 5° |
| 2026-04-22 20:46 | 29.69825 | 75.23112 | 33712 ft | 489 kts | 7° |
| 2026-04-22 20:47 | 29.76568 | 75.24177 | 33718 ft | 489 kts | 6° |
| 2026-04-22 20:47 | 29.83316 | 75.25160 | 33715 ft | 489 kts | 6° |
| 2026-04-22 20:48 | 29.90021 | 75.26101 | 33724 ft | 488 kts | 5° |
| 2026-04-22 20:48 | 29.96769 | 75.27045 | 33719 ft | 488 kts | 5° |
| 2026-04-22 20:49 | 30.03521 | 75.27896 | 33721 ft | 488 kts | 2° |
| 2026-04-22 20:49 | 30.06885 | 75.27959 | 33563 ft | 476 kts | 356° |
| 2026-04-22 20:49 | 30.10118 | 75.27641 | 33205 ft | 460 kts | 351° |
| 2026-04-22 20:50 | 30.13263 | 75.27122 | 32715 ft | 455 kts | 349° |
| 2026-04-22 20:50 | 30.16346 | 75.26543 | 32087 ft | 456 kts | 349° |
| 2026-04-22 20:50 | 30.19485 | 75.25950 | 31476 ft | 459 kts | 349° |
| 2026-04-22 20:50 | 30.22649 | 75.25373 | 30884 ft | 462 kts | 350° |
| 2026-04-22 20:51 | 30.25822 | 75.24818 | 30286 ft | 465 kts | 350° |
| 2026-04-22 20:51 | 30.29051 | 75.24271 | 29661 ft | 469 kts | 350° |
| 2026-04-22 20:51 | 30.32293 | 75.23731 | 28976 ft | 471 kts | 351° |
| 2026-04-22 20:51 | 30.35536 | 75.23196 | 28349 ft | 473 kts | 351° |
| 2026-04-22 20:52 | 30.38802 | 75.22657 | 27732 ft | 475 kts | 351° |
| 2026-04-22 20:52 | 30.42037 | 75.22124 | 27118 ft | 476 kts | 351° |
| 2026-04-22 20:52 | 30.45318 | 75.21581 | 26451 ft | 478 kts | 351° |
| 2026-04-22 20:52 | 30.48618 | 75.21034 | 25787 ft | 479 kts | 351° |
| 2026-04-22 20:53 | 30.51924 | 75.20486 | 25124 ft | 481 kts | 351° |
| 2026-04-22 20:53 | 30.55247 | 75.19934 | 24459 ft | 483 kts | 351° |
| 2026-04-22 20:53 | 30.58568 | 75.19382 | 23797 ft | 481 kts | 351° |
| 2026-04-22 20:53 | 30.61870 | 75.18834 | 23091 ft | 478 kts | 351° |
| 2026-04-22 20:54 | 30.65141 | 75.18290 | 22349 ft | 473 kts | 351° |
| 2026-04-22 20:54 | 30.68340 | 75.17758 | 21677 ft | 468 kts | 351° |
| 2026-04-22 20:54 | 30.71553 | 75.17222 | 21022 ft | 464 kts | 351° |
| 2026-04-22 20:54 | 30.74734 | 75.16692 | 20368 ft | 460 kts | 351° |
| 2026-04-22 20:55 | 30.77885 | 75.16144 | 19729 ft | 455 kts | 348° |
| 2026-04-22 20:55 | 30.80896 | 75.15149 | 19078 ft | 449 kts | 335° |
| 2026-04-22 20:55 | 30.83565 | 75.13331 | 18428 ft | 441 kts | 321° |
| 2026-04-22 20:55 | 30.85851 | 75.10976 | 17760 ft | 437 kts | 314° |
| 2026-04-22 20:56 | 30.87957 | 75.08455 | 17083 ft | 432 kts | 312° |
| 2026-04-22 20:56 | 30.89987 | 75.05973 | 16442 ft | 427 kts | 313° |
| 2026-04-22 20:56 | 30.92057 | 75.03505 | 15814 ft | 422 kts | 313° |
| 2026-04-22 20:56 | 30.94130 | 75.01110 | 15187 ft | 418 kts | 314° |
| 2026-04-22 20:57 | 30.96202 | 74.98773 | 14612 ft | 413 kts | 315° |
| 2026-04-22 20:57 | 30.98270 | 74.96475 | 14030 ft | 408 kts | 315° |
| 2026-04-22 20:57 | 31.00320 | 74.94212 | 13441 ft | 404 kts | 315° |
| 2026-04-22 20:57 | 31.02349 | 74.91978 | 12816 ft | 399 kts | 315° |
| 2026-04-22 20:58 | 31.04335 | 74.89792 | 12238 ft | 396 kts | 315° |
| 2026-04-22 20:58 | 31.06332 | 74.87591 | 11671 ft | 393 kts | 315° |
| 2026-04-22 20:58 | 31.08310 | 74.85411 | 11150 ft | 390 kts | 315° |
| 2026-04-22 20:58 | 31.10276 | 74.83241 | 10847 ft | 388 kts | 315° |
| 2026-04-22 20:59 | 31.12197 | 74.81121 | 10707 ft | 370 kts | 315° |
| 2026-04-22 20:59 | 31.14018 | 74.79111 | 10590 ft | 351 kts | 315° |
| 2026-04-22 20:59 | 31.15748 | 74.77200 | 10445 ft | 334 kts | 315° |
| 2026-04-22 20:59 | 31.17395 | 74.75380 | 10336 ft | 319 kts | 315° |
| 2026-04-22 21:00 | 31.18951 | 74.73658 | 10137 ft | 308 kts | 315° |
| 2026-04-22 21:00 | 31.20491 | 74.71953 | 9730 ft | 303 kts | 315° |
| 2026-04-22 21:00 | 31.22012 | 74.70267 | 9157 ft | 298 kts | 315° |
| 2026-04-22 21:00 | 31.23497 | 74.68621 | 8641 ft | 291 kts | 315° |
| 2026-04-22 21:01 | 31.24945 | 74.67014 | 8151 ft | 283 kts | 315° |
| 2026-04-22 21:01 | 31.26360 | 74.65445 | 7680 ft | 277 kts | 315° |
| 2026-04-22 21:01 | 31.27752 | 74.63899 | 7252 ft | 275 kts | 314° |
| 2026-04-22 21:01 | 31.28858 | 74.62106 | 6712 ft | 272 kts | 291° |
| 2026-04-22 21:02 | 31.29412 | 74.60013 | 6278 ft | 270 kts | 284° |
| 2026-04-22 21:02 | 31.29857 | 74.57911 | 5838 ft | 270 kts | 284° |
| 2026-04-22 21:02 | 31.30337 | 74.55794 | 5407 ft | 269 kts | 285° |
| 2026-04-22 21:02 | 31.30862 | 74.53675 | 5008 ft | 272 kts | 287° |
| 2026-04-22 21:03 | 31.31421 | 74.51559 | 4614 ft | 272 kts | 288° |
| 2026-04-22 21:03 | 31.32002 | 74.49452 | 4221 ft | 272 kts | 288° |
| 2026-04-22 21:03 | 31.32593 | 74.47371 | 3856 ft | 267 kts | 289° |
| 2026-04-22 21:03 | 31.33179 | 74.45343 | 3599 ft | 256 kts | 289° |
| 2026-04-22 21:04 | 31.33720 | 74.43491 | 3490 ft | 225 kts | 290° |
| 2026-04-22 21:04 | 31.34313 | 74.41936 | 3245 ft | 204 kts | 304° |
| 2026-04-22 21:04 | 31.35264 | 74.40793 | 2914 ft | 191 kts | 331° |
| 2026-04-22 21:04 | 31.36518 | 74.40443 | 2766 ft | 187 kts | 358° |
| 2026-04-22 21:05 | 31.37835 | 74.40357 | 2804 ft | 190 kts | 357° |
| 2026-04-22 21:05 | 31.39156 | 74.40266 | 2766 ft | 190 kts | 358° |
| 2026-04-22 21:05 | 31.40478 | 74.40239 | 2640 ft | 190 kts | 1° |
| 2026-04-22 21:05 | 31.41736 | 74.40256 | 2352 ft | 172 kts | 2° |
| 2026-04-22 21:06 | 31.42932 | 74.40275 | 2179 ft | 171 kts | 2° |
| 2026-04-22 21:06 | 31.44101 | 74.40296 | 1951 ft | 170 kts | 2° |
| 2026-04-22 21:06 | 31.45280 | 74.40317 | 1748 ft | 169 kts | 3° |
| 2026-04-22 21:06 | 31.46454 | 74.40342 | 1537 ft | 169 kts | 3° |
| 2026-04-22 21:07 | 31.47640 | 74.40375 | 1297 ft | 171 kts | 2° |
| 2026-04-22 21:07 | 31.48833 | 74.40401 | 1088 ft | 171 kts | 1° |
| 2026-04-22 21:07 | 31.50022 | 74.40416 | 873 ft | 170 kts | 1° |
| 2026-04-22 21:07 | 31.51204 | 74.40436 | 726 ft | 163 kts | 1° |
| 2026-04-22 21:08 | 31.52168 | 74.40458 | 728 ft | 111 kts | 1° |
| 2026-04-22 21:08 | 31.52753 | 74.40467 | 727 ft | 63 kts | 1° |
| 2026-04-22 21:08 | 31.53061 | 74.40475 | 728 ft | 35 kts | 1° |
| 2026-04-22 21:08 | 31.53287 | 74.40478 | 729 ft | 30 kts | 0° |
| 2026-04-22 21:09 | 31.53481 | 74.40481 | 729 ft | 26 kts | 0° |
| 2026-04-22 21:09 | 31.53626 | 74.40506 | 730 ft | 15 kts | 41° |
| 2026-04-22 21:09 | 31.53628 | 74.40581 | 730 ft | 8 kts | 115° |
| 2026-04-22 21:09 | 31.53599 | 74.40635 | 730 ft | 7 kts | 130° |
| 2026-04-22 21:10 | 31.53542 | 74.40678 | 728 ft | 14 kts | 160° |
| 2026-04-22 21:10 | 31.53449 | 74.40694 | 728 ft | 12 kts | 179° |
| 2026-04-22 21:10 | 31.53366 | 74.40691 | 728 ft | 14 kts | 181° |
| 2026-04-22 21:10 | 31.53258 | 74.40688 | 729 ft | 17 kts | 181° |
| 2026-04-22 21:11 | 31.53122 | 74.40685 | 728 ft | 21 kts | 181° |
| 2026-04-22 21:11 | 31.52968 | 74.40682 | 728 ft | 22 kts | 181° |
| 2026-04-22 21:11 | 31.52812 | 74.40678 | 727 ft | 23 kts | 181° |
| 2026-04-22 21:11 | 31.52656 | 74.40674 | 726 ft | 23 kts | 181° |
| 2026-04-22 21:12 | 31.52549 | 74.40672 | 728 ft | 23 kts | 180° |
| 2026-04-22 21:12 | 31.52336 | 74.40670 | 726 ft | 23 kts | 180° |
| 2026-04-22 21:12 | 31.52179 | 74.40668 | 726 ft | 22 kts | 180° |
| 2026-04-22 21:12 | 31.52037 | 74.40666 | 727 ft | 19 kts | 180° |
| 2026-04-22 21:13 | 31.51912 | 74.40665 | 725 ft | 17 kts | 180° |
| 2026-04-22 21:13 | 31.51802 | 74.40664 | 727 ft | 15 kts | 180° |
| 2026-04-22 21:13 | 31.51722 | 74.40703 | 727 ft | 11 kts | 121° |
| 2026-04-22 21:13 | 31.51715 | 74.40777 | 725 ft | 8 kts | 80° |
| 2026-04-22 21:14 | 31.51740 | 74.40814 | 725 ft | 5 kts | 39° |
| 2026-04-22 21:14 | 31.51757 | 74.40839 | 726 ft | 5 kts | 60° |
| 2026-04-22 21:14 | 31.51763 | 74.40880 | 726 ft | 4 kts | 87° |
| 2026-04-22 21:14 | 31.51763 | 74.40908 | 726 ft | 2 kts | 90° |
| 2026-04-22 21:15 | 31.51763 | 74.40921 | 726 ft | 1 kts | 90° |
| 2026-04-22 21:15 | 31.51763 | 74.40926 | 726 ft | 0 kts | 90° |
| 2026-04-22 21:15 | 31.51763 | 74.40934 | 726 ft | 0 kts | 90° |
| 2026-04-22 21:15 | 31.51763 | 74.40935 | 726 ft | 0 kts | 90° |